San Fernando, Spain
Current Conditions -  °F | °C
As of 2:00 AM on Sunday 26 Oct 2014 (Local Time) from LERT Reporting Station
Clear Clear  
Wind Chill: 64°   Ceiling: Unl
Heat Index: 64°   Visibility: 6mi
Dew Point: 50°   Wind: 3mph
Humidity: 59%   Direction: 80°E
Pressure: 30.09"   Gusts: NA
Location:  36.48°N, 6.2°W
Report Text: LERT 260000Z 08003KT CAVOK 18/10 Q1019 NOSIG
Loading
Personal Weather Stations






























Interactive Weather Map
Tropical Storm Tracking
New forecast layout! Learn more

10-Day Weather Forecast

Advertisements
Track Severe Weather on mobile